createdAt,value
2022-09-25T00:00:08.831Z,962.72
2022-09-25T00:01:08.810Z,962.72
2022-09-25T00:02:08.738Z,962.78
2022-09-25T00:03:08.661Z,962.76
2022-09-25T00:04:08.644Z,962.77
2022-09-25T00:05:08.535Z,962.78
2022-09-25T00:06:08.515Z,962.78
2022-09-25T00:07:08.467Z,962.77
2022-09-25T00:08:08.383Z,962.78
2022-09-25T00:09:10.120Z,962.78
2022-09-25T00:10:08.293Z,962.77
2022-09-25T00:11:08.268Z,962.81
2022-09-25T00:12:08.223Z,962.77
2022-09-25T00:13:08.132Z,962.77
2022-09-25T00:14:17.105Z,962.79
2022-09-25T00:15:08.009Z,962.78
2022-09-25T00:16:07.954Z,962.76
2022-09-25T00:17:07.969Z,962.74
2022-09-25T00:18:07.850Z,962.76
2022-09-25T00:19:07.797Z,962.75
2022-09-25T00:20:07.798Z,962.72
2022-09-25T00:21:07.691Z,962.76
2022-09-25T00:22:07.644Z,962.72
2022-09-25T00:23:07.588Z,962.72
2022-09-25T00:24:07.553Z,962.73
2022-09-25T00:25:07.486Z,962.72
2022-09-25T00:26:07.451Z,962.72
2022-09-25T00:27:07.385Z,962.72
2022-09-25T00:28:07.330Z,962.74
2022-09-25T00:29:07.278Z,962.74
2022-09-25T00:30:07.229Z,962.72
2022-09-25T00:31:07.324Z,962.72
2022-09-25T00:32:07.120Z,962.73
2022-09-25T00:33:07.066Z,962.72
2022-09-25T00:34:07.106Z,962.72
2022-09-25T00:35:06.966Z,962.75
2022-09-25T00:36:06.913Z,962.71
2022-09-25T00:37:06.909Z,962.68
2022-09-25T00:38:06.807Z,962.69
2022-09-25T00:39:06.754Z,962.65
2022-09-25T00:40:06.714Z,962.64
2022-09-25T00:41:06.655Z,962.63
2022-09-25T00:42:06.600Z,962.64
2022-09-25T00:43:06.595Z,962.66
2022-09-25T00:44:06.495Z,962.67
2022-09-25T00:45:06.443Z,962.64
2022-09-25T00:46:06.414Z,962.66
2022-09-25T00:47:06.339Z,962.66
2022-09-25T00:48:06.296Z,962.63
2022-09-25T00:49:06.631Z,962.61
2022-09-25T00:50:06.184Z,962.58
2022-09-25T00:51:06.134Z,962.60
2022-09-25T00:52:06.079Z,962.62
2022-09-25T00:53:06.025Z,962.61
2022-09-25T00:54:06.046Z,962.60
2022-09-25T00:55:05.929Z,962.62
2022-09-25T00:56:05.874Z,962.59
2022-09-25T00:57:05.818Z,962.62
2022-09-25T00:58:05.766Z,962.64
2022-09-25T00:59:05.738Z,962.60
2022-09-25T01:00:05.663Z,962.59
2022-09-25T01:01:05.656Z,962.60
2022-09-25T01:02:05.601Z,962.61
2022-09-25T01:03:05.505Z,962.60
2022-09-25T01:04:05.538Z,962.61
2022-09-25T01:05:05.427Z,962.58
2022-09-25T01:06:05.347Z,962.58
2022-09-25T01:07:05.303Z,962.59
2022-09-25T01:08:05.242Z,962.60
2022-09-25T01:09:05.195Z,962.63
2022-09-25T01:10:05.137Z,962.62
2022-09-25T01:11:05.113Z,962.60
2022-09-25T01:12:05.037Z,962.60
2022-09-25T01:13:04.982Z,962.59
2022-09-25T01:14:04.932Z,962.60
2022-09-25T01:15:04.879Z,962.55
2022-09-25T01:16:04.847Z,962.57
2022-09-25T01:17:04.881Z,962.55
2022-09-25T01:18:04.723Z,962.58
2022-09-25T01:19:04.672Z,962.54
2022-09-25T01:20:04.620Z,962.52
2022-09-25T01:21:04.597Z,962.52
2022-09-25T01:22:04.514Z,962.53
2022-09-25T01:23:04.462Z,962.51
2022-09-25T01:24:04.407Z,962.52
2022-09-25T01:25:04.359Z,962.50
2022-09-25T01:26:04.311Z,962.49
2022-09-25T01:27:04.278Z,962.48
2022-09-25T01:28:04.201Z,962.46
2022-09-25T01:29:04.153Z,962.47
2022-09-25T01:30:04.098Z,962.45
2022-09-25T01:31:04.111Z,962.46
2022-09-25T01:32:04.021Z,962.42
2022-09-25T01:33:03.937Z,962.47
2022-09-25T01:34:03.941Z,962.44
2022-09-25T01:35:03.835Z,962.46
2022-09-25T01:36:03.785Z,962.45
2022-09-25T01:37:03.731Z,962.49
2022-09-25T01:38:03.842Z,962.48
2022-09-25T01:39:03.629Z,962.47
2022-09-25T01:40:03.575Z,962.49
2022-09-25T01:41:03.524Z,962.48
2022-09-25T01:42:03.469Z,962.48
2022-09-25T01:43:03.417Z,962.48
2022-09-25T01:44:03.453Z,962.50
2022-09-25T01:45:03.312Z,962.46
2022-09-25T01:46:03.386Z,962.44
2022-09-25T01:47:03.217Z,962.47
2022-09-25T01:48:03.154Z,962.50
2022-09-25T01:49:03.123Z,962.46
2022-09-25T01:50:03.053Z,962.46
2022-09-25T01:51:03.024Z,962.48
2022-09-25T01:52:02.947Z,962.42
2022-09-25T01:53:02.896Z,962.44
2022-09-25T01:54:02.868Z,962.41
2022-09-25T01:55:02.791Z,962.42
2022-09-25T01:56:02.758Z,962.40
2022-09-25T01:57:02.687Z,962.39
2022-09-25T01:58:02.634Z,962.42
2022-09-25T01:59:02.610Z,962.41
2022-09-25T02:00:02.535Z,962.39
2022-09-25T02:01:02.555Z,962.40
2022-09-25T02:02:02.598Z,962.36
2022-09-25T02:03:02.500Z,962.37
2022-09-25T02:04:02.320Z,962.34
2022-09-25T02:05:02.289Z,962.37
2022-09-25T02:06:02.215Z,962.36
2022-09-25T02:07:02.164Z,962.36
2022-09-25T02:08:02.112Z,962.36
2022-09-25T02:09:02.060Z,962.39
2022-09-25T02:10:02.025Z,962.40
2022-09-25T02:11:01.953Z,962.41
2022-09-25T02:12:01.903Z,962.41
2022-09-25T02:13:01.851Z,962.38
2022-09-25T02:14:01.796Z,962.41
2022-09-25T02:15:01.765Z,962.39
2022-09-25T02:16:01.692Z,962.39
2022-09-25T02:17:01.680Z,962.37
2022-09-25T02:18:01.604Z,962.35
2022-09-25T02:19:01.537Z,962.36
2022-09-25T02:20:01.520Z,962.33
2022-09-25T02:21:01.461Z,962.33
2022-09-25T02:22:01.387Z,962.33
2022-09-25T02:23:01.325Z,962.37
2022-09-25T02:24:01.274Z,962.37
2022-09-25T02:25:01.226Z,962.34
2022-09-25T02:26:01.213Z,962.37
2022-09-25T02:27:01.116Z,962.36
2022-09-25T02:28:01.064Z,962.32
2022-09-25T02:29:01.009Z,962.34
2022-09-25T02:30:00.960Z,962.32
2022-09-25T02:31:00.955Z,962.31
2022-09-25T02:32:00.875Z,962.32
2022-09-25T02:33:00.803Z,962.29
2022-09-25T02:34:00.750Z,962.31
2022-09-25T02:35:00.697Z,962.30
2022-09-25T02:36:00.644Z,962.30
2022-09-25T02:37:00.625Z,962.33
2022-09-25T02:38:00.538Z,962.33
2022-09-25T02:39:00.486Z,962.33
2022-09-25T02:40:00.441Z,962.33
2022-09-25T02:41:00.452Z,962.33
2022-09-25T02:42:00.327Z,962.31
2022-09-25T02:43:00.300Z,962.32
2022-09-25T02:44:00.234Z,962.32
2022-09-25T02:45:00.173Z,962.30
2022-09-25T02:46:00.211Z,962.30
2022-09-25T02:47:00.073Z,962.29
2022-09-25T02:48:00.016Z,962.29
2022-09-25T02:48:59.990Z,962.28
2022-09-25T02:49:59.999Z,962.26
2022-09-25T02:50:59.860Z,962.27
2022-09-25T02:51:59.808Z,962.26
2022-09-25T02:52:59.774Z,962.26
2022-09-25T02:53:59.700Z,962.27
2022-09-25T02:54:59.689Z,962.26
2022-09-25T02:55:59.596Z,962.28
2022-09-25T02:57:03.699Z,962.28
2022-09-25T02:57:59.493Z,962.31
2022-09-25T02:58:59.441Z,962.29
2022-09-25T02:59:59.416Z,962.27
2022-09-25T03:00:59.414Z,962.28
2022-09-25T03:01:59.359Z,962.26
2022-09-25T03:02:59.249Z,962.26
2022-09-25T03:03:59.177Z,962.26
2022-09-25T03:04:59.123Z,962.29
2022-09-25T03:05:59.093Z,962.25
2022-09-25T03:06:59.021Z,962.28
2022-09-25T03:07:58.966Z,962.28
2022-09-25T03:08:58.916Z,962.28
2022-09-25T03:09:58.862Z,962.31
2022-09-25T03:10:58.830Z,962.30
2022-09-25T03:11:58.759Z,962.30
2022-09-25T03:12:58.705Z,962.26
2022-09-25T03:13:58.655Z,962.31
2022-09-25T03:14:58.614Z,962.31
2022-09-25T03:15:58.636Z,962.35
2022-09-25T03:16:58.601Z,962.32
2022-09-25T03:17:58.444Z,962.33
2022-09-25T03:18:58.389Z,962.29
2022-09-25T03:19:58.341Z,962.32
2022-09-25T03:20:58.283Z,962.33
2022-09-25T03:21:58.258Z,962.31
2022-09-25T03:22:58.180Z,962.31
2022-09-25T03:23:58.129Z,962.27
2022-09-25T03:24:58.075Z,962.30
2022-09-25T03:25:58.025Z,962.29
2022-09-25T03:26:57.973Z,962.28
2022-09-25T03:27:57.937Z,962.30
2022-09-25T03:28:57.869Z,962.27
2022-09-25T03:29:57.821Z,962.28
2022-09-25T03:30:57.819Z,962.29
2022-09-25T03:31:57.709Z,962.30
2022-09-25T03:32:57.683Z,962.26
2022-09-25T03:33:57.606Z,962.29
2022-09-25T03:34:57.560Z,962.30
2022-09-25T03:35:57.500Z,962.32
2022-09-25T03:36:57.446Z,962.27
2022-09-25T03:37:57.396Z,962.31
2022-09-25T03:38:57.673Z,962.32
2022-09-25T03:39:57.286Z,962.32
2022-09-25T03:40:57.272Z,962.28
2022-09-25T03:41:57.184Z,962.27
2022-09-25T03:42:57.130Z,962.27
2022-09-25T03:43:57.079Z,962.29
2022-09-25T03:44:57.044Z,962.26
2022-09-25T03:45:57.028Z,962.26
2022-09-25T03:46:56.928Z,962.30
2022-09-25T03:47:56.867Z,962.29
2022-09-25T03:48:56.815Z,962.28
2022-09-25T03:49:56.789Z,962.29
2022-09-25T03:50:56.713Z,962.24
2022-09-25T03:51:56.657Z,962.27
2022-09-25T03:52:56.605Z,962.23
2022-09-25T03:53:56.554Z,962.24
2022-09-25T03:54:56.500Z,962.26
2022-09-25T03:55:56.466Z,962.23
2022-09-25T03:56:56.394Z,962.25
2022-09-25T03:57:56.343Z,962.21
2022-09-25T03:58:56.296Z,962.25
2022-09-25T03:59:56.236Z,962.21
2022-09-25T04:00:56.250Z,962.23
2022-09-25T04:01:56.132Z,962.26
2022-09-25T04:02:56.136Z,962.24
2022-09-25T04:03:56.031Z,962.25
2022-09-25T04:04:55.976Z,962.20
2022-09-25T04:05:55.923Z,962.25
2022-09-25T04:06:55.893Z,962.22
2022-09-25T04:07:55.817Z,962.23
2022-09-25T04:08:55.771Z,962.24
2022-09-25T04:09:55.711Z,962.24
2022-09-25T04:10:55.660Z,962.22
2022-09-25T04:11:55.632Z,962.22
2022-09-25T04:12:55.555Z,962.21
2022-09-25T04:13:55.508Z,962.23
2022-09-25T04:14:55.452Z,962.25
2022-09-25T04:15:55.450Z,962.21
2022-09-25T04:16:55.355Z,962.20
2022-09-25T04:17:55.310Z,962.23
2022-09-25T04:18:55.244Z,962.21
2022-09-25T04:19:55.187Z,962.21
2022-09-25T04:20:55.134Z,962.23
2022-09-25T04:21:55.080Z,962.22
2022-09-25T04:22:55.054Z,962.22
2022-09-25T04:23:54.976Z,962.21
2022-09-25T04:24:54.928Z,962.18
2022-09-25T04:25:54.871Z,962.22
2022-09-25T04:26:54.817Z,962.21
2022-09-25T04:27:54.769Z,962.18
2022-09-25T04:28:54.748Z,962.18
2022-09-25T04:29:54.662Z,962.20
2022-09-25T04:30:54.611Z,962.19
2022-09-25T04:31:54.613Z,962.18
2022-09-25T04:32:54.508Z,962.17
2022-09-25T04:33:54.451Z,962.15
2022-09-25T04:34:54.418Z,962.18
2022-09-25T04:35:54.343Z,962.13
2022-09-25T04:36:54.292Z,962.16
2022-09-25T04:37:54.241Z,962.16
2022-09-25T04:38:54.186Z,962.17
2022-09-25T04:39:54.168Z,962.15
2022-09-25T04:40:54.178Z,962.18
2022-09-25T04:41:54.029Z,962.17
2022-09-25T04:42:53.981Z,962.16
2022-09-25T04:43:53.925Z,962.19
2022-09-25T04:44:53.869Z,962.21
2022-09-25T04:45:53.884Z,962.23
2022-09-25T04:46:53.882Z,962.24
2022-09-25T04:47:53.715Z,962.22
2022-09-25T04:48:53.663Z,962.23
2022-09-25T04:49:53.608Z,962.23
2022-09-25T04:50:53.553Z,962.24
2022-09-25T04:51:53.523Z,962.27
2022-09-25T04:52:53.449Z,962.27
2022-09-25T04:53:54.166Z,962.26
2022-09-25T04:54:53.345Z,962.25
2022-09-25T04:55:53.292Z,962.23
2022-09-25T04:56:53.265Z,962.25
2022-09-25T04:57:58.727Z,962.22
2022-09-25T04:58:53.134Z,962.20
2022-09-25T04:59:53.081Z,962.24
2022-09-25T05:00:53.094Z,962.24
2022-09-25T05:01:53.072Z,962.27
2022-09-25T05:02:53.023Z,962.24
2022-09-25T05:03:52.904Z,962.19
2022-09-25T05:04:52.818Z,962.20
2022-09-25T05:05:52.765Z,962.19
2022-09-25T05:06:52.718Z,962.17
2022-09-25T05:07:52.661Z,962.20
2022-09-25T05:08:52.624Z,962.19
2022-09-25T05:09:52.565Z,962.22
2022-09-25T05:10:52.503Z,962.21
2022-09-25T05:11:52.449Z,962.18
2022-09-25T05:12:52.397Z,962.22
2022-09-25T05:13:52.463Z,962.19
2022-09-25T05:14:52.292Z,962.17
2022-09-25T05:15:52.299Z,962.18
2022-09-25T05:16:52.188Z,962.17
2022-09-25T05:17:52.136Z,962.20
2022-09-25T05:18:52.087Z,962.19
2022-09-25T05:19:52.046Z,962.20
2022-09-25T05:20:51.974Z,962.17
2022-09-25T05:21:51.925Z,962.22
2022-09-25T05:22:51.873Z,962.17
2022-09-25T05:23:51.817Z,962.17
2022-09-25T05:24:56.573Z,962.16
2022-09-25T05:25:51.714Z,962.17
2022-09-25T05:26:51.658Z,962.17
2022-09-25T05:27:51.605Z,962.14
2022-09-25T05:28:51.554Z,962.15
2022-09-25T05:29:51.502Z,962.13
2022-09-25T05:30:51.464Z,962.14
2022-09-25T05:31:51.459Z,962.08
2022-09-25T05:32:51.341Z,962.11
2022-09-25T05:33:51.290Z,962.09
2022-09-25T05:34:51.238Z,962.14
2022-09-25T05:35:51.209Z,962.11
2022-09-25T05:36:51.130Z,962.15
2022-09-25T05:37:51.082Z,962.13
2022-09-25T05:38:51.032Z,962.13
2022-09-25T05:39:50.972Z,962.15
2022-09-25T05:40:50.937Z,962.15
2022-09-25T05:41:50.888Z,962.14
2022-09-25T05:42:50.817Z,962.17
2022-09-25T05:43:50.761Z,962.18
2022-09-25T05:44:50.711Z,962.15
2022-09-25T05:45:50.714Z,962.16
2022-09-25T05:46:50.636Z,962.11
2022-09-25T05:47:50.558Z,962.16
2022-09-25T05:48:50.498Z,962.17
2022-09-25T05:49:50.453Z,962.16
2022-09-25T05:50:50.394Z,962.17
2022-09-25T05:51:50.339Z,962.17
2022-09-25T05:52:50.320Z,962.16
2022-09-25T05:53:50.235Z,962.18
2022-09-25T05:54:50.185Z,962.17
2022-09-25T05:55:50.129Z,962.17
2022-09-25T05:56:50.087Z,962.17
2022-09-25T05:57:50.026Z,962.18
2022-09-25T05:58:49.989Z,962.18
2022-09-25T05:59:49.925Z,962.17
2022-09-25T06:00:49.868Z,962.17
2022-09-25T06:01:49.869Z,962.15
2022-09-25T06:02:49.833Z,962.15
2022-09-25T06:03:49.746Z,962.13
2022-09-25T06:04:49.658Z,962.14
2022-09-25T06:05:49.614Z,962.16
2022-09-25T06:06:49.550Z,962.14
2022-09-25T06:07:49.497Z,962.12
2022-09-25T06:08:49.445Z,962.11
2022-09-25T06:09:49.414Z,962.15
2022-09-25T06:10:49.338Z,962.12
2022-09-25T06:11:49.286Z,962.13
2022-09-25T06:12:49.238Z,962.08
2022-09-25T06:13:54.054Z,962.09
2022-09-25T06:14:49.128Z,962.16
2022-09-25T06:15:49.168Z,962.15
2022-09-25T06:16:49.023Z,962.17
2022-09-25T06:17:48.973Z,962.18
2022-09-25T06:18:48.916Z,962.18
2022-09-25T06:19:48.862Z,962.16
2022-09-25T06:20:48.840Z,962.18
2022-09-25T06:21:48.758Z,962.21
2022-09-25T06:22:48.706Z,962.23
2022-09-25T06:23:48.674Z,962.23
2022-09-25T06:24:48.618Z,962.20
2022-09-25T06:25:48.552Z,962.19
2022-09-25T06:26:48.525Z,962.21
2022-09-25T06:27:48.442Z,962.17
2022-09-25T06:28:48.394Z,962.17
2022-09-25T06:29:48.341Z,962.17
2022-09-25T06:30:48.396Z,962.16
2022-09-25T06:31:48.257Z,962.17
2022-09-25T06:32:48.178Z,962.18
2022-09-25T06:33:48.125Z,962.17
2022-09-25T06:34:48.072Z,962.15
2022-09-25T06:35:48.024Z,962.18
2022-09-25T06:36:47.975Z,962.20
2022-09-25T06:37:47.940Z,962.18
2022-09-25T06:38:47.863Z,962.21
2022-09-25T06:39:47.812Z,962.18
2022-09-25T06:40:47.908Z,962.18
2022-09-25T06:41:47.707Z,962.23
2022-09-25T06:42:47.718Z,962.23
2022-09-25T06:43:47.595Z,962.23
2022-09-25T06:44:47.543Z,962.24
2022-09-25T06:45:47.489Z,962.27
2022-09-25T06:46:47.497Z,962.31
2022-09-25T06:47:47.390Z,962.29
2022-09-25T06:48:47.376Z,962.31
2022-09-25T06:49:47.318Z,962.35
2022-09-25T06:50:47.226Z,962.36
2022-09-25T06:51:47.172Z,962.41
2022-09-25T06:52:47.123Z,962.35
2022-09-25T06:53:47.076Z,962.36
2022-09-25T06:54:47.032Z,962.39
2022-09-25T06:55:46.979Z,962.41
2022-09-25T06:56:46.908Z,962.40
2022-09-25T06:57:46.858Z,962.41
2022-09-25T06:58:46.803Z,962.43
2022-09-25T06:59:46.767Z,962.42
2022-09-25T07:00:46.698Z,962.42
2022-09-25T07:01:46.696Z,962.45
2022-09-25T07:02:55.810Z,962.45
2022-09-25T07:03:46.600Z,962.43
2022-09-25T07:04:46.581Z,962.45
2022-09-25T07:05:46.477Z,962.51
2022-09-25T07:06:46.419Z,962.47
2022-09-25T07:07:46.377Z,962.49
2022-09-25T07:08:46.310Z,962.52
2022-09-25T07:09:46.257Z,962.53
2022-09-25T07:10:46.227Z,962.53
2022-09-25T07:11:46.147Z,962.55
2022-09-25T07:12:46.082Z,962.53
2022-09-25T07:13:46.048Z,962.56
2022-09-25T07:14:46.004Z,962.52
2022-09-25T07:15:46.072Z,962.54
2022-09-25T07:16:45.896Z,962.51
2022-09-25T07:17:45.845Z,962.52
2022-09-25T07:18:45.770Z,962.52
2022-09-25T07:19:45.704Z,962.53
2022-09-25T07:20:45.691Z,962.51
2022-09-25T07:21:45.653Z,962.54
2022-09-25T07:22:45.580Z,962.55
2022-09-25T07:23:45.525Z,962.55
2022-09-25T07:24:45.491Z,962.58
2022-09-25T07:25:45.428Z,962.55
2022-09-25T07:26:45.358Z,962.57
2022-09-25T07:27:45.339Z,962.57
2022-09-25T07:28:45.250Z,962.56
2022-09-25T07:29:45.208Z,962.53
2022-09-25T07:30:45.210Z,962.49
2022-09-25T07:31:45.099Z,962.48
2022-09-25T07:32:45.076Z,962.48
2022-09-25T07:33:44.997Z,962.44
2022-09-25T07:34:44.955Z,962.47
2022-09-25T07:35:44.901Z,962.46
2022-09-25T07:36:44.825Z,962.42
2022-09-25T07:37:44.785Z,962.42
2022-09-25T07:38:44.758Z,962.43
2022-09-25T07:39:44.690Z,962.42
2022-09-25T07:40:44.709Z,962.43
2022-09-25T07:41:44.573Z,962.43
2022-09-25T07:42:44.526Z,962.45
2022-09-25T07:43:44.499Z,962.47
2022-09-25T07:44:48.149Z,962.46
2022-09-25T07:45:44.368Z,962.44
2022-09-25T07:46:44.632Z,962.42
2022-09-25T07:47:44.232Z,962.42
2022-09-25T07:48:44.187Z,962.41
2022-09-25T07:49:44.185Z,962.41
2022-09-25T07:50:44.106Z,962.41
2022-09-25T07:51:44.062Z,962.43
2022-09-25T07:52:43.995Z,962.41
2022-09-25T07:53:43.989Z,962.41
2022-09-25T07:54:43.911Z,962.41
2022-09-25T07:55:43.858Z,962.40
2022-09-25T07:56:43.804Z,962.41
2022-09-25T07:57:43.722Z,962.43
2022-09-25T07:58:43.648Z,962.43
2022-09-25T07:59:43.612Z,962.41
2022-09-25T08:00:43.575Z,962.42
2022-09-25T08:01:45.577Z,962.42
2022-09-25T08:02:43.487Z,962.42
2022-09-25T08:03:43.394Z,962.43
2022-09-25T08:04:43.353Z,962.41
2022-09-25T08:05:43.323Z,962.42
2022-09-25T08:06:43.277Z,962.44
2022-09-25T08:07:43.197Z,962.43
2022-09-25T08:08:43.158Z,962.41
2022-09-25T08:09:43.086Z,962.41
2022-09-25T08:10:43.081Z,962.42
2022-09-25T08:11:42.984Z,962.45
2022-09-25T08:12:42.923Z,962.41
2022-09-25T08:13:42.869Z,962.44
2022-09-25T08:14:42.824Z,962.45
2022-09-25T08:15:42.803Z,962.44
2022-09-25T08:16:42.815Z,962.45
2022-09-25T08:17:42.661Z,962.42
2022-09-25T08:18:42.641Z,962.42
2022-09-25T08:19:42.556Z,962.43
2022-09-25T08:20:42.521Z,962.43
2022-09-25T08:21:42.483Z,962.43
2022-09-25T08:22:42.400Z,962.43
2022-09-25T08:23:46.906Z,962.44
2022-09-25T08:24:42.307Z,962.41
2022-09-25T08:25:42.242Z,962.40
2022-09-25T08:26:42.182Z,962.45
2022-09-25T08:27:42.167Z,962.45
2022-09-25T08:28:42.087Z,962.47
2022-09-25T08:29:42.030Z,962.45
2022-09-25T08:30:42.015Z,962.41
2022-09-25T08:31:42.021Z,962.40
2022-09-25T08:32:41.879Z,962.40
2022-09-25T08:33:41.867Z,962.41
2022-09-25T08:34:42.129Z,962.40
2022-09-25T08:35:41.718Z,962.40
2022-09-25T08:36:41.651Z,962.39
2022-09-25T08:37:41.606Z,962.38
2022-09-25T08:38:41.557Z,962.39
2022-09-25T08:39:41.543Z,962.37
2022-09-25T08:40:46.272Z,962.42
2022-09-25T08:41:41.475Z,962.41
2022-09-25T08:42:41.347Z,962.44
2022-09-25T08:43:41.291Z,962.42
2022-09-25T08:44:52.611Z,962.43
2022-09-25T08:45:41.229Z,962.45
2022-09-25T08:46:41.217Z,962.45
2022-09-25T08:47:41.073Z,962.42
2022-09-25T08:48:41.026Z,962.44
2022-09-25T08:49:40.968Z,962.42
2022-09-25T08:50:40.921Z,962.39
2022-09-25T08:51:40.907Z,962.38
2022-09-25T08:52:40.822Z,962.42
2022-09-25T08:53:40.767Z,962.40
2022-09-25T08:54:43.435Z,962.45
2022-09-25T08:55:40.663Z,962.40
2022-09-25T08:56:40.598Z,962.41
2022-09-25T08:57:40.599Z,962.43
2022-09-25T08:58:40.509Z,962.41
2022-09-25T08:59:40.448Z,962.41
2022-09-25T09:00:40.393Z,962.39
2022-09-25T09:01:40.366Z,962.38
2022-09-25T09:02:40.354Z,962.38
2022-09-25T09:03:40.283Z,962.38
2022-09-25T09:04:40.170Z,962.38
2022-09-25T09:05:40.117Z,962.42
2022-09-25T09:06:40.062Z,962.41
2022-09-25T09:07:40.041Z,962.40
2022-09-25T09:08:39.960Z,962.40
2022-09-25T09:09:39.978Z,962.44
2022-09-25T09:10:40.796Z,962.45
2022-09-25T09:11:39.805Z,962.44
2022-09-25T09:12:39.790Z,962.43
2022-09-25T09:13:39.716Z,962.44
2022-09-25T09:14:39.692Z,962.45
2022-09-25T09:15:39.689Z,962.42
2022-09-25T09:16:39.551Z,962.44
2022-09-25T09:17:39.510Z,962.45
2022-09-25T09:18:39.434Z,962.46
2022-09-25T09:19:39.415Z,962.44
2022-09-25T09:20:39.398Z,962.41
2022-09-25T09:21:39.306Z,962.40
2022-09-25T09:22:39.274Z,962.38
2022-09-25T09:23:39.193Z,962.40
2022-09-25T09:24:39.147Z,962.38
2022-09-25T09:25:39.128Z,962.39
2022-09-25T09:26:39.039Z,962.35
2022-09-25T09:27:38.984Z,962.37
2022-09-25T09:28:38.951Z,962.39
2022-09-25T09:29:38.888Z,962.37
2022-09-25T09:30:38.943Z,962.35
2022-09-25T09:31:38.821Z,962.34
2022-09-25T09:32:38.744Z,962.34
2022-09-25T09:33:38.727Z,962.33
2022-09-25T09:35:04.284Z,962.32
2022-09-25T09:35:38.582Z,962.34
2022-09-25T09:36:38.595Z,962.32
2022-09-25T09:37:38.480Z,962.31
2022-09-25T09:38:38.429Z,962.28
2022-09-25T09:39:38.366Z,962.28
2022-09-25T09:40:38.342Z,962.29
2022-09-25T09:41:38.284Z,962.28
2022-09-25T09:42:38.213Z,962.32
2022-09-25T09:43:38.176Z,962.30
2022-09-25T09:44:38.128Z,962.27
2022-09-25T09:45:38.053Z,962.31
2022-09-25T09:46:38.087Z,962.26
2022-09-25T09:47:37.952Z,962.27
2022-09-25T09:48:37.913Z,962.31
2022-09-25T09:49:37.852Z,962.26
2022-09-25T09:50:42.458Z,962.30
2022-09-25T09:51:37.755Z,962.29
2022-09-25T09:52:37.717Z,962.29
2022-09-25T09:53:37.640Z,962.29
2022-09-25T09:54:37.590Z,962.30
2022-09-25T09:55:37.538Z,962.30
2022-09-25T09:56:37.492Z,962.30
2022-09-25T09:57:37.474Z,962.26
2022-09-25T09:58:37.426Z,962.28
2022-09-25T09:59:37.321Z,962.31
2022-09-25T10:00:37.291Z,962.29
2022-09-25T10:01:41.272Z,962.24
2022-09-25T10:02:37.271Z,962.26
2022-09-25T10:03:37.164Z,962.27
2022-09-25T10:04:37.078Z,962.21
2022-09-25T10:05:37.034Z,962.23
2022-09-25T10:06:36.976Z,962.20
2022-09-25T10:07:36.910Z,962.21
2022-09-25T10:08:36.895Z,962.19
2022-09-25T10:09:36.881Z,962.18
2022-09-25T10:10:36.768Z,962.17
2022-09-25T10:11:36.726Z,962.16
2022-09-25T10:12:36.682Z,962.16
2022-09-25T10:13:36.637Z,962.19
2022-09-25T10:14:36.546Z,962.16
2022-09-25T10:15:36.527Z,962.16
2022-09-25T10:16:36.456Z,962.17
2022-09-25T10:17:36.431Z,962.16
2022-09-25T10:18:36.385Z,962.17
2022-09-25T10:19:36.319Z,962.17
2022-09-25T10:20:36.287Z,962.15
2022-09-25T10:21:36.206Z,962.15
2022-09-25T10:22:36.131Z,962.16
2022-09-25T10:23:36.120Z,962.16
2022-09-25T10:24:36.093Z,962.18
2022-09-25T10:25:36.016Z,962.17
2022-09-25T10:26:35.959Z,962.18
2022-09-25T10:27:35.890Z,962.15
2022-09-25T10:28:35.831Z,962.17
2022-09-25T10:29:35.831Z,962.18
2022-09-25T10:30:35.734Z,962.16
2022-09-25T10:31:35.684Z,962.19
2022-09-25T10:32:35.637Z,962.18
2022-09-25T10:33:35.573Z,962.14
2022-09-25T10:34:35.589Z,962.19
2022-09-25T10:35:35.504Z,962.19
2022-09-25T10:36:35.416Z,962.17
2022-09-25T10:37:35.377Z,962.17
2022-09-25T10:38:35.336Z,962.15
2022-09-25T10:39:50.083Z,962.16
2022-09-25T10:40:35.313Z,962.16
2022-09-25T10:41:35.176Z,962.17
2022-09-25T10:42:35.148Z,962.17
2022-09-25T10:43:35.074Z,962.17
2022-09-25T10:44:35.087Z,962.16
2022-09-25T10:45:35.002Z,962.16
2022-09-25T10:46:34.959Z,962.13
2022-09-25T10:47:34.889Z,962.12
2022-09-25T10:48:34.827Z,962.15
2022-09-25T10:49:34.769Z,962.14
2022-09-25T10:50:34.754Z,962.16
2022-09-25T10:51:34.669Z,962.15
2022-09-25T10:52:34.597Z,962.15
2022-09-25T10:53:34.570Z,962.20
2022-09-25T10:54:35.328Z,962.18
2022-09-25T10:55:34.498Z,962.21
2022-09-25T10:56:34.417Z,962.20
2022-09-25T10:57:34.669Z,962.20
2022-09-25T10:58:34.334Z,962.21
2022-09-25T10:59:34.237Z,962.20
2022-09-25T11:00:34.213Z,962.22
2022-09-25T11:01:34.223Z,962.22
2022-09-25T11:02:34.139Z,962.23
2022-09-25T11:03:34.094Z,962.23
2022-09-25T11:04:34.001Z,962.22
2022-09-25T11:05:33.951Z,962.22
2022-09-25T11:06:33.932Z,962.21
2022-09-25T11:07:33.897Z,962.21
2022-09-25T11:08:33.774Z,962.22
2022-09-25T11:09:33.738Z,962.18
2022-09-25T11:10:33.695Z,962.16
2022-09-25T11:11:33.668Z,962.16
2022-09-25T11:12:33.587Z,962.17
2022-09-25T11:13:33.534Z,962.15
2022-09-25T11:14:33.546Z,962.12
2022-09-25T11:15:33.450Z,962.17
2022-09-25T11:16:33.433Z,962.12
2022-09-25T11:17:33.340Z,962.12
2022-09-25T11:18:33.286Z,962.10
2022-09-25T11:19:33.225Z,962.08
2022-09-25T11:20:33.191Z,962.08
2022-09-25T11:21:33.157Z,962.08
2022-09-25T11:22:33.090Z,962.09
2022-09-25T11:23:33.035Z,962.06
2022-09-25T11:24:32.966Z,962.07
2022-09-25T11:25:32.930Z,962.07
2022-09-25T11:26:32.964Z,962.09
2022-09-25T11:27:32.821Z,962.10
2022-09-25T11:28:32.771Z,962.08
2022-09-25T11:29:32.733Z,962.13
2022-09-25T11:30:32.717Z,962.06
2022-09-25T11:31:32.601Z,962.09
2022-09-25T11:32:32.622Z,962.09
2022-09-25T11:33:32.518Z,962.09
2022-09-25T11:34:32.461Z,962.10
2022-09-25T11:35:32.426Z,962.06
2022-09-25T11:36:32.367Z,962.07
2022-09-25T11:37:32.340Z,962.06
2022-09-25T11:38:32.286Z,962.09
2022-09-25T11:39:32.247Z,962.06
2022-09-25T11:40:32.219Z,962.10
2022-09-25T11:41:32.097Z,962.09
2022-09-25T11:42:32.054Z,962.08
2022-09-25T11:43:32.747Z,962.08
2022-09-25T11:44:31.940Z,962.04
2022-09-25T11:45:31.881Z,962.08
2022-09-25T11:46:31.867Z,962.06
2022-09-25T11:47:31.809Z,962.07
2022-09-25T11:48:31.751Z,962.03
2022-09-25T11:49:31.713Z,962.06
2022-09-25T11:50:31.675Z,962.04
2022-09-25T11:51:31.560Z,962.05
2022-09-25T11:52:31.528Z,962.07
2022-09-25T11:53:31.481Z,962.02
2022-09-25T11:54:34.169Z,962.04
2022-09-25T11:55:31.354Z,962.07
2022-09-25T11:56:32.994Z,962.03
2022-09-25T11:57:34.596Z,962.07
2022-09-25T11:58:31.300Z,962.05
2022-09-25T11:59:31.200Z,962.06
2022-09-25T12:00:31.145Z,962.05
2022-09-25T12:01:31.104Z,962.03
2022-09-25T12:02:31.024Z,962.04
2022-09-25T12:03:30.970Z,962.01
2022-09-25T12:04:30.903Z,962.05
2022-09-25T12:05:30.932Z,962.03
2022-09-25T12:06:30.811Z,962.01
2022-09-25T12:07:30.745Z,962.03
2022-09-25T12:08:30.719Z,962.03
2022-09-25T12:09:30.646Z,962.02
2022-09-25T12:10:30.610Z,962.02
2022-09-25T12:11:30.599Z,962.01
2022-09-25T12:12:30.509Z,962.01
2022-09-25T12:13:30.469Z,961.97
2022-09-25T12:14:30.389Z,962.01
2022-09-25T12:15:30.362Z,962.00
2022-09-25T12:16:30.311Z,961.98
2022-09-25T12:17:30.317Z,961.97
2022-09-25T12:18:34.060Z,961.99
2022-09-25T12:19:30.122Z,962.01
2022-09-25T12:20:30.162Z,961.95
2022-09-25T12:21:30.037Z,961.98
2022-09-25T12:22:30.029Z,961.96
2022-09-25T12:23:29.967Z,961.97
2022-09-25T12:24:32.985Z,961.94
2022-09-25T12:25:29.847Z,961.94
2022-09-25T12:26:29.757Z,961.95
2022-09-25T12:27:29.715Z,961.93